x

9410840 - Santa Monica Pier (icac1) Weather Station

2:18 - Mon 22nd Dec 2014 All times are PST. -8 hours from GMT.

  • Wind
    5mph
  • Sea Temp 64°f
  • Air Temp 62°f
  • Sea Pressure 1014.7mb
  • 9410840 - Santa Monica Pier
  • 9410840 - Santa Monica Pier

More Historic Weather Station data

Upgrade to MSW Pro to gain access to the past 30 days of data for over 8000 Wavebouys and Weather Stations around the globe.

Join Pro

Comparision Forecast

View Surf forecast
   
lun. 12/22 2:18 5
mph
1014.7mb 64f 62f
2:12 5 6 mph 1014.8mb 64f 62f
2:06 5 6 mph 1014.8mb 64f 62f
2:00 5 6 mph 1014.9mb 63f 62f
1:54 5 6 mph 1015mb 63f 62f
1:48 3 5 mph 1015mb 63f 61f
1:42 5 7 mph 1015.1mb 63f 61f
1:36 7 8 mph 1015.1mb 63f 62f
1:30 7 8 mph 1015.1mb 63f 62f
1:24 7
mph
1015.3mb 63f 62f
1:18 6
mph
1015.5mb 63f 62f
1:12 7
mph
1015.5mb 63f 62f
1:06 7 8 mph 1015.6mb 63f 63f
1:00 7 9 mph 1015.7mb 63f 63f
12:54 7 8 mph 1015.9mb 63f 63f
12:48 7
mph
1015.9mb 63f 63f
12:42 6 7 mph 1016mb 63f 64f
12:36 5 6 mph 1015.9mb 63f 64f
12:30 2 3 mph 1016.1mb 63f 65f
12:24 2
mph
1016mb 63f 65f
12:18 2 3 mph 1016.2mb 63f 64f
12:12 3 5 mph 1016.3mb 63f 63f
12:06 6 7 mph 1016.3mb 63f 62f
12:00 6 7 mph 1016.4mb 63f 62f
11:54 6 7 mph 1016.5mb 63f 62f
11:48 7 8 mph 1016.5mb 63f 62f
11:42 6 8 mph 1016.6mb 63f 62f
11:36 8 9 mph 1016.8mb 63f 62f
11:30 6 8 mph 1016.9mb 63f 63f
11:24 6
mph
1017mb 63f 63f
11:18 6 7 mph 1017mb 63f 63f
11:12 6 7 mph 1017.1mb 63f 63f
11:06 5 7 mph 1017.2mb 63f 63f
11:00 6 7 mph 1017.4mb 63f 63f
10:54 5 6 mph 1017.5mb 63f 63f
10:48 3 5 mph 1017.6mb 63f 63f
10:42 1 2 mph 1017.6mb 63f 64f
10:36  -  1 mph 1017.6mb 63f 64f
10:30 1 2 mph 1017.7mb 63f 62f
10:24 2 3 mph 1017.8mb 63f 62f
10:18 2 5 mph 1017.9mb 63f 62f
10:12 3 5 mph 1017.9mb 63f 62f
10:06 5 6 mph 1017.9mb 63f 61f
10:00 3 5 mph 1018mb 63f 61f
9:54 3 5 mph 1018.1mb 63f 61f
9:48 3
mph
1018.2mb 63f 62f
9:42 2
mph
1018.3mb 63f 62f
9:36  -  2 mph 1018.3mb 63f 63f
9:30 2 5 mph 1018.3mb 63f 62f
9:24 5 6 mph 1018.3mb 63f 61f
9:18 5 6 mph 1018.2mb 63f 61f
9:12 3
mph
1018.2mb 63f 61f
9:00 2
mph
1018.1mb 63f 61f
8:54 1 2 mph 1018mb 63f 62f
8:48 1 2 mph 1017.9mb 63f 62f
8:42  -  2 mph 1017.8mb 63f 62f
8:36 2 5 mph 1017.8mb 63f 60f
8:30 2 5 mph 1017.7mb 63f 60f
8:24 3 6 mph 1017.7mb 63f 59f
8:18 2 6 mph 1017.7mb 63f 58f
8:06 6
mph
1017.7mb 63f 57f
8:00 2 3 mph 1017.7mb 63f 57f
7:54 3 5 mph 1017.7mb 63f 57f
7:48 3 5 mph 1017.6mb 63f 57f
7:42 2 3 mph 1017.6mb 63f 57f
7:36 2 5 mph 1017.5mb 63f 57f
7:30 5
mph
1017.4mb 63f 57f
7:24 2 3 mph 1017.5mb 63f 57f
7:18 2 3 mph 1017.5mb 63f 57f
7:12 3 5 mph 1017.5mb 63f 56f
7:06 3 6 mph 1017.4mb 63f 57f
7:00 3 5 mph 1017.3mb 63f 57f
6:54 2 6 mph 1017.3mb 63f 57f
6:48 5 9 mph 1017.2mb 63f 58f
6:42 9 10 mph 1017.1mb 63f 58f
6:36 9 11 mph 1017.2mb 63f 58f
6:30 10 11 mph 1017.1mb 63f 57f
6:24 10 11 mph 1017.1mb 63f 57f
6:18 9 13 mph 1017.1mb 63f 57f
6:12 10 13 mph 1017.1mb 63f 57f
6:06 9 10 mph 1017mb 63f 57f
6:00 8 10 mph 1017.1mb 63f 57f
5:54 8 10 mph 1017.2mb 63f 57f
5:48 7 10 mph 1017.2mb 63f 57f
5:42 9 10 mph 1017.2mb 63f 57f
5:36 8
mph
1017.2mb 63f 58f
5:30 7 8 mph 1017.2mb 63f 58f
5:24 8 9 mph 1017mb 63f 58f
5:18 8
mph
1017.1mb 63f 58f
5:12 7 8 mph 1017.1mb 63f 58f
5:06 8 9 mph 1017.1mb 63f 58f
5:00 7 8 mph 1017mb 63f 57f
4:54 6 7 mph 1017mb 63f 56f
4:48 3 8 mph 1017.1mb 63f 56f
4:42 6 10 mph 1017.1mb 63f 56f
4:36 9 11 mph 1017mb 63f 56f
4:30 8 10 mph 1016.9mb 63f 56f
4:24 10 11 mph 1017mb 63f 56f
4:18 8 10 mph 1016.9mb 63f 56f
4:12 8 9 mph 1017.1mb 63f 56f
4:06 7 9 mph 1017.3mb 63f 56f
4:00 5 7 mph 1017.4mb 63f 56f
3:54 7 8 mph 1017.5mb 63f 56f
3:48 6 8 mph 1017.5mb 63f 56f
3:42 6 7 mph 1017.6mb 63f 56f
3:36 5 6 mph 1017.6mb 63f 56f
3:30 5 6 mph 1017.5mb 63f 56f
3:24 5 6 mph 1017.5mb 63f 56f
3:18 5 6 mph 1017.5mb 63f 57f
3:12 5 6 mph 1017.5mb 63f 57f
3:06 3 6 mph 1017.5mb 63f 58f
3:00 3 6 mph 1017.5mb 63f 58f
2:54 6 7 mph 1017.4mb 63f 58f
2:48 6 7 mph 1017.5mb 63f 57f
2:42 5 6 mph 1017.5mb 63f 58f
2:36 6
mph
1017.5mb 63f 58f
2:30 5
mph
1017.4mb 63f 58f
2:24 3
mph
1017.3mb 63f 58f
2:12 1 2 mph 1017.3mb 63f 58f
2:06 1 2 mph 1017.4mb 63f 59f
2:00  -  3 mph 1017.2mb 63f 59f
1:54 1 3 mph 1017.3mb 63f 58f
1:48 2 3 mph 1017.3mb 63f 59f
1:42 2 5 mph 1017.3mb 63f 59f
1:36 5 6 mph 1017.3mb 63f 59f
1:30 2 3 mph 1017.3mb 63f 59f
1:24 1 5 mph 1017.3mb 63f 59f
1:18 5
mph
1017.2mb 63f 59f
1:12 2
mph
1017.1mb 63f 59f
1:06 1 2 mph 1017.2mb 63f 59f
1:00  -  mph 1017.2mb 63f 59f
12:54  -  1 mph 1017.2mb 63f 59f
12:48  -  1 mph 1017.3mb 63f 59f
12:42  -  2 mph 1017.2mb 63f 59f
12:36  -  1 mph 1017.2mb 63f 59f
12:30  -  5 mph 1017.2mb 63f 59f
12:24 1 6 mph 1017.3mb 63f 59f
12:18 5 6 mph 1017.2mb 63f 59f
12:12 3 5 mph 1017.3mb 63f 60f
12:06 5 6 mph 1017.4mb 63f 60f
12:00 5
mph
1017.6mb 63f 60f
dim. 12/21 11:54 3 5 mph 1017.7mb 63f 60f
11:48 2 3 mph 1017.8mb 63f 60f
11:42 2 3 mph 1017.9mb 63f 60f
11:36 1 2 mph 1018.1mb 63f 60f
11:30 2
mph
1018mb 63f 60f
11:24 1 2 mph 1018.1mb 63f 60f
11:18 1
mph
1018.1mb 63f 60f
11:12  -  1 mph 1018.1mb 63f 60f
11:06  -  2 mph 1018mb 63f 60f
11:00 3 5 mph 1018mb 63f 60f
10:54 5 6 mph 1018.1mb 63f 60f
10:48 5 6 mph 1018mb 63f 60f
10:42 5 6 mph 1018.1mb 63f 60f
10:36 3 5 mph 1018.1mb 63f 60f
10:30 3 6 mph 1018.1mb 63f 60f
10:24 3 7 mph 1018.1mb 63f 60f
10:18 5 6 mph 1018.1mb 63f 60f
10:12 7 8 mph 1018.2mb 63f 60f
10:06 7
mph
1018.2mb 63f 60f
10:00 6 7 mph 1018.3mb 63f 61f
9:54 7 8 mph 1018.2mb 63f 61f
9:48 9 10 mph 1018.1mb 63f 61f
9:42 10 11 mph 1018.1mb 63f 61f
9:36 8 9 mph 1018.1mb 63f 61f
9:30 6 8 mph 1018.1mb 63f 62f
9:24 6 9 mph 1018mb 63f 62f
9:06 7 9 mph 1017.8mb 63f 62f
9:00 8 10 mph 1017.9mb 63f 61f
8:54 7 9 mph 1017.9mb 63f 61f
8:48 7 11 mph 1018mb 63f 62f
8:42 7 10 mph 1017.9mb 63f 62f
8:36 6 11 mph 1017.9mb 63f 62f
8:30 8 11 mph 1018mb 63f 62f
8:24 9 13 mph 1018mb 63f 62f
8:18 7 11 mph 1017.9mb 63f 62f
8:12 9 10 mph 1017.8mb 63f 63f
8:06 7 10 mph 1017.8mb 63f 63f
8:00 9 14 mph 1017.8mb 63f 64f
7:54 7 10 mph 1017.8mb 63f 65f
7:48 7 10 mph 1017.8mb 63f 66f
7:42 8 15 mph 1017.7mb 63f 68f
7:36 16 22 mph 1017.5mb 63f 71f
7:30 9 14 mph 1017.5mb 63f 71f
7:24 9 17 mph 1017.5mb 63f 71f
7:18 11 20 mph 1017.4mb 63f 71f
7:12 17 26 mph 1017.3mb 63f 71f
7:06 17 26 mph 1017.3mb 63f 71f
7:00 18 28 mph 1017.3mb 63f 71f
6:54 22 32 mph 1017.3mb 63f 71f
6:48 10 15 mph 1017.2mb 63f 71f
6:42 8 14 mph 1017.4mb 63f 68f
6:36 6 21 mph 1017.4mb 63f 69f
6:30 15 24 mph 1017.4mb 63f 68f
6:24 2 7 mph 1017.4mb 63f 64f
6:18 2 7 mph 1017.4mb 63f 63f
6:12 5 8 mph 1017.3mb 63f 63f
6:06 8 9 mph 1017.3mb 63f 64f
6:00 9 10 mph 1017.3mb 63f 64f
5:54 3 8 mph 1017.3mb 63f 65f
5:48 9 11 mph 1017.2mb 63f 65f
5:42 8 13 mph 1017.4mb 63f 67f
5:36 10 24 mph 1017.2mb 63f 72f
5:30 20 31 mph 1017mb 63f 72f
5:24 22 29 mph 1016.9mb 63f 72f
5:18 22 28 mph 1017mb 63f 71f
5:12 1 8 mph 1017.2mb 63f 64f
5:00 17 33 mph 1017mb 63f 71f
4:54 17 21 mph 1017.1mb 63f 64f
4:48 10 14 mph 1017.4mb 63f 63f
4:36 5 7 mph 1017.6mb 63f 62f
4:30 6 7 mph 1017.6mb 63f 62f
4:24 7 8 mph 1017.7mb 63f 61f
4:18 6
mph
1017.7mb 63f 61f
4:12 2
mph
1018mb 63f 61f
4:06 2 5 mph 1018mb 63f 61f
4:00 5 6 mph 1017.8mb 63f 61f
3:54 5 6 mph 1017.7mb 63f 61f
3:48 5 6 mph 1017.7mb 63f 61f
3:42 5
mph
1017.9mb 63f 61f
3:36 5 6 mph 1017.9mb 63f 61f
3:30 5 6 mph 1017.7mb 63f 61f
3:24 6
mph
1017.7mb 63f 61f
3:18 5 6 mph 1017.7mb 63f 61f
3:12 6 7 mph 1017.6mb 63f 61f
3:06 6
mph
1017.7mb 63f 61f
3:00 7
mph
1017.7mb 63f 61f
2:54 6 7 mph 1017.8mb 63f 61f
2:48 6
mph
1017.8mb 63f 61f
2:42 5 6 mph 1017.8mb 63f 61f
2:36 6 7 mph 1017.8mb 63f 61f
2:30 7 8 mph 1017.9mb 63f 61f
2:24 6 7 mph 1017.8mb 63f 61f
2:18 6 7 mph 1017.9mb 63f 61f
2:00 5 6 mph 1018mb 63f 62f
1:54 5 7 mph 1017.9mb 63f 62f
1:48 6 7 mph 1018mb 63f 62f
1:42 6 7 mph 1018.2mb 63f 61f
1:36 8
mph
1018mb 63f 61f
1:30 6 7 mph 1018.1mb 63f 62f
1:24 5 7 mph 1018.3mb 63f 62f
1:18 7 8 mph 1018.4mb 63f 61f
1:12 6 8 mph 1018.4mb 63f 61f
1:06 6 7 mph 1018.5mb 63f 61f
1:00 7
mph
1018.6mb 63f 61f
12:54 6
mph
1018.8mb 63f 61f
12:48 6 7 mph 1018.8mb 63f 62f
12:42 6 7 mph 1018.8mb 63f 62f
12:36 5 6 mph 1019.1mb 63f 62f
12:30 5 6 mph 1019.1mb 63f 62f
12:24 3 6 mph 1019.3mb 63f 62f
12:18 5 7 mph 1019.3mb 63f 62f
12:12 6 8 mph 1019.4mb 63f 62f
12:06 7 8 mph 1019.5mb 63f 61f
12:00 7 8 mph 1019.6mb 63f 61f
11:54 6 7 mph 1019.7mb 63f 62f
11:48 6
mph
1019.9mb 63f 62f
11:42 5
mph
1020.1mb 63f 63f
11:36 2 5 mph 1020.1mb 63f 64f
11:30 3 6 mph 1020.2mb 63f 64f
11:24 5 6 mph 1020.3mb 63f 63f
11:18 5
mph
1020.5mb 63f 63f
11:12 5 6 mph 1020.5mb 63f 62f
11:06 7 8 mph 1020.7mb 63f 60f
11:00 5 6 mph 1020.9mb 63f 61f
10:54 2 3 mph 1020.9mb 63f 62f
10:48 2 5 mph 1021.1mb 63f 62f
10:42 3 5 mph 1021.1mb 63f 61f
10:36 3 5 mph 1021.1mb 63f 61f
10:30 3 5 mph 1021.3mb 63f 62f
10:24 3 5 mph 1021.3mb 63f 62f
10:18 3 5 mph 1021.4mb 63f 61f
10:12 3 6 mph 1021.4mb 63f 61f
10:06 3 5 mph 1021.4mb 63f 61f
10:00 3 6 mph 1021.4mb 63f 60f
9:54 6 8 mph 1021.4mb 63f 60f
9:48 6 7 mph 1021.5mb 63f 60f
9:42 5 7 mph 1021.6mb 63f 59f
9:36 5 7 mph 1021.6mb 63f 59f
9:30 6 8 mph 1021.7mb 63f 59f
9:24 5 6 mph 1021.7mb 63f 59f
9:12 3 5 mph 1021.7mb 63f 59f
9:06 3 5 mph 1021.7mb 63f 59f
9:00 3
mph
1021.6mb 63f 59f
8:54 1 2 mph 1021.5mb 63f 59f
8:48 2 5 mph 1021.4mb 63f 58f
8:42 2 6 mph 1021.4mb 63f 58f
8:36 5 6 mph 1021.3mb 63f 58f
8:30 5 6 mph 1021.2mb 63f 57f
8:24 5 7 mph 1021.2mb 63f 57f
8:18 6 8 mph 1021.1mb 63f 57f
8:12 7 8 mph 1021.1mb 63f 56f
8:00 7 8 mph 1021mb 63f 56f
7:54 7 9 mph 1021mb 63f 56f
7:48 8 9 mph 1020.7mb 63f 56f
7:42 7 8 mph 1020.7mb 63f 56f
7:36 7 9 mph 1020.7mb 63f 56f
7:30 8 9 mph 1020.7mb 63f 56f
7:24 6 8 mph 1020.7mb 63f 56f
7:18 7 9 mph 1020.7mb 63f 55f
7:12 7 8 mph 1020.6mb 62f 55f
7:06 7 9 mph 1020.6mb 63f 55f
7:00 7 9 mph 1020.6mb 63f 55f
6:54 7 8 mph 1020.5mb 63f 55f
6:48 2 3 mph 1020.6mb 63f 56f
6:36 3 6 mph 1020.6mb 63f 56f
6:30 3 7 mph 1020.6mb 63f 56f
6:24 7
mph
1020.6mb 63f 56f
6:18 6 7 mph 1020.5mb 63f 56f
6:12 6 8 mph 1020.5mb 63f 56f
6:06 5 8 mph 1020.4mb 63f 56f
6:00 6 8 mph 1020.5mb 63f 56f
5:54 7 8 mph 1020.6mb 63f 56f
5:48 6 7 mph 1020.4mb 63f 56f
5:42 5 7 mph 1020.5mb 63f 56f
5:36 6 8 mph 1020.5mb 63f 56f
5:30 6 8 mph 1020.5mb 63f 56f
5:24 7 8 mph 1020.6mb 63f 56f
5:18 7 8 mph 1020.5mb 63f 56f
5:12 7 9 mph 1020.4mb 63f 56f
5:06 7
mph
1020.4mb 62f 56f
5:00 6 9 mph 1020.2mb 63f 56f
4:54 7 9 mph 1020.2mb 63f 56f
4:48 8 9 mph 1020.2mb 63f 56f
4:42 7 8 mph 1020.2mb 63f 57f
4:36 6 7 mph 1020.2mb 63f 57f
4:30 6 8 mph 1020mb 63f 57f
4:24 6 7 mph 1020mb 63f 57f
4:18 6 7 mph 1020mb 63f 56f
4:12 6 7 mph 1019.9mb 63f 56f
4:06 6 8 mph 1020mb 63f 57f
4:00 7 8 mph 1019.8mb 63f 57f
3:54 7 8 mph 1019.9mb 63f 57f
3:48 6 8 mph 1019.9mb 63f 57f
3:42 6 7 mph 1020mb 63f 57f
3:30 6 8 mph 1020mb 63f 57f
3:24 6 7 mph 1020mb 63f 57f
3:18 2 6 mph 1020mb 63f 57f
3:12 5 9 mph 1020.2mb 63f 57f
3:06 7 8 mph 1020.4mb 63f 57f
3:00 6 8 mph 1020.4mb 63f 57f
2:54 6 9 mph 1020.5mb 63f 57f
2:48 7 9 mph 1020.6mb 63f 57f
2:42 6 9 mph 1020.6mb 62f 57f
2:36 6 8 mph 1020.7mb 63f 57f
2:30 6 7 mph 1020.8mb 63f 57f
2:24 5 7 mph 1020.8mb 63f 57f
2:18 5 8 mph 1020.7mb 63f 57f
2:06 7 9 mph 1020.7mb 63f 58f
2:00 8 10 mph 1020.7mb 63f 58f
1:54 6 7 mph 1020.7mb 63f 58f
1:48 3 7 mph 1020.8mb 63f 58f
1:42 6 10 mph 1020.8mb 63f 58f
1:36 7 9 mph 1020.8mb 63f 58f
1:30 6 8 mph 1020.8mb 63f 57f
1:24 6 9 mph 1020.8mb 63f 58f
1:18 7 9 mph 1020.8mb 63f 58f
1:12 9 11 mph 1020.6mb 63f 58f
1:06 9 10 mph 1020.7mb 63f 58f
1:00 8 10 mph 1020.8mb 63f 58f
12:54 8 10 mph 1020.9mb 63f 58f
12:48 7 10 mph 1020.9mb 63f 57f
12:42 7 10 mph 1020.9mb 63f 58f
12:36 10
mph
1020.9mb 63f 58f
12:30 7 9 mph 1020.9mb 63f 58f
12:24 8 10 mph 1021mb 63f 58f
12:18 8 10 mph 1021.1mb 63f 58f
12:12 7 9 mph 1021mb 63f 58f
12:06 9 10 mph 1021.1mb 63f 58f
12:00 6 8 mph 1021.2mb 63f 58f
sam. 12/20 11:54 7 8 mph 1021.2mb 63f 58f
11:48 7 9 mph 1021.2mb 63f 58f
11:42 7 8 mph 1021.4mb 63f 59f
11:36 6 9 mph 1021.5mb 63f 59f
11:30 6 9 mph 1021.6mb 63f 59f
11:24 7 9 mph 1021.6mb 63f 59f
11:18 6 7 mph 1021.6mb 63f 59f
11:12 6 10 mph 1021.6mb 63f 59f
11:06 7 9 mph 1021.6mb 63f 59f
11:00 9 10 mph 1021.5mb 63f 59f
10:54 7 8 mph 1021.4mb 63f 59f
10:48 8 9 mph 1021.4mb 63f 59f
10:42 5 8 mph 1021.4mb - 59f
10:36 6 7 mph 1021.4mb - 59f
10:30 6 8 mph 1021.4mb - 59f
10:24 6 8 mph 1021.4mb - 59f
10:18 5 6 mph 1021.4mb 63f 59f
10:12 6 8 mph 1021.5mb 63f 59f
10:06 7 8 mph 1021.4mb 63f 59f
10:00 6 10 mph 1021.2mb 63f 59f
9:54 7 9 mph 1021.1mb 63f 59f
9:48 7 10 mph 1021mb 63f 59f
9:42 6 8 mph 1021mb 63f 59f
9:36 6 10 mph 1021mb 63f 59f
9:30 8 10 mph 1020.9mb 63f 59f
9:24 5 8 mph 1020.8mb 63f 59f
9:18 8 10 mph 1020.9mb 63f 59f
9:12 6 7 mph 1021.1mb 63f 59f
9:06 6 7 mph 1020.9mb 63f 59f
9:00 6 8 mph 1021.2mb 63f 59f
8:54 6 8 mph 1021.1mb 63f 59f
8:48 7 10 mph 1021.1mb 63f 60f
8:42 8 10 mph 1021.2mb 63f 59f
8:36 5 6 mph 1021.3mb 63f 59f
8:30 5 7 mph 1021.2mb 63f 59f
8:24 6 7 mph 1021.2mb 63f 59f
8:18 6 9 mph 1021.1mb 63f 59f
8:12 8 9 mph 1021.1mb 63f 59f
8:06 7 9 mph 1020.8mb 63f 60f
8:00 6 7 mph 1020.9mb 63f 60f
7:54 5 6 mph 1021mb 63f 60f
7:48 5 6 mph 1020.9mb 63f 60f
7:42 3 6 mph 1020.9mb 63f 60f
7:36 5 6 mph 1020.9mb 63f 60f
7:30 6 7 mph 1020.8mb 63f 60f
7:24 6 7 mph 1020.9mb 63f 60f
7:18 6 7 mph 1020.8mb 63f 60f
7:12 6 7 mph 1021mb 63f 60f
7:06 5 6 mph 1020.9mb 63f 60f
7:00 6 8 mph 1021mb 63f 60f
6:54 7 8 mph 1021.1mb 63f 60f
6:48 6 9 mph 1021.2mb 63f 60f
6:42 6 7 mph 1021mb 63f 60f
6:36 5 6 mph 1020.9mb 63f 60f
6:30 5
mph
1020.7mb 63f 60f
6:24 2 6 mph 1020.6mb 63f 60f
6:18 5 6 mph 1020.6mb 63f 61f
6:12 6
mph
1020.7mb 63f 60f
6:06 5 7 mph 1020.7mb 63f 60f
6:00 6 7 mph 1020.3mb 63f 60f
5:54 3
mph
1020.5mb 63f 60f
5:48 3 6 mph 1020.2mb 63f 61f
5:42 6
mph
1020mb 63f 61f
5:36 5 6 mph 1020.3mb 63f 61f
5:30 6
mph
1020.3mb 63f 61f
5:24 3 6 mph 1020.8mb 63f 61f
5:18 5 7 mph 1020.8mb 63f 61f
5:12 5 6 mph 1020.9mb 63f 61f
5:06 2 5 mph 1020.7mb 63f 61f
5:00 2 3 mph 1020.6mb 63f 61f
4:54 3 5 mph 1020.2mb 63f 61f
4:48 2 3 mph 1020.3mb 63f 61f
4:42 2 3 mph 1020.4mb 63f 61f
4:36 3 5 mph 1020.5mb 63f 61f
4:30 3
mph
1020.4mb 63f 61f
4:24 2
mph
1020.3mb 63f 61f
4:18 2 3 mph 1020.3mb 63f 62f
4:12 3 5 mph 1020.2mb 63f 62f
4:06 3 5 mph 1020.1mb 63f 61f
4:00 3
mph
1020.1mb 63f 61f
3:54 2 3 mph 1020.1mb 63f 61f
3:48 3 5 mph 1020mb 63f 61f
3:42 3 5 mph 1020mb 63f 61f
3:36 3 5 mph 1020.1mb 63f 62f
3:30 3 5 mph 1020.2mb 63f 61f
3:24 2 5 mph 1020.4mb 63f 62f
3:18 3 5 mph 1020.3mb 63f 62f
3:12 5 6 mph 1020.1mb 63f 61f
3:06 5
mph
1020.1mb 63f 61f
3:00 2 3 mph 1020.2mb 63f 61f
2:54 2 3 mph 1020.2mb 63f 62f
2:48 3
mph
1020.2mb 63f 62f
2:42 2 3 mph 1020.3mb 63f 62f
2:36 2 3 mph 1020.2mb 63f 62f
2:30 3 5 mph 1020.2mb 63f 62f
2:24 3
mph
1020mb 63f 62f
2:18 2
mph
1020.1mb 63f 62f
2:06  -  2 mph 1020.3mb 63f 62f
2:00 1 2 mph 1020.3mb 63f 62f
1:54  -  3 mph 1020.2mb 63f 62f
1:48 2
mph
1020.4mb 63f 62f
1:42 2
mph
1020.4mb 63f 62f
1:36  -  1 mph 1020.3mb 63f 63f
1:30 1 3 mph 1020.4mb 63f 61f
1:24 3 5 mph 1020.5mb 63f 61f
1:18 3
mph
1020.6mb 63f 62f
1:12 3
mph
1020.6mb 63f 62f
1:06 2 3 mph 1020.8mb 63f 62f
1:00 3 5 mph 1020.9mb 63f 62f
12:54 2 3 mph 1020.9mb 63f 62f
12:48 3
mph
1021mb 63f 61f
12:42 2 3 mph 1021.3mb 63f 61f
12:36 2 3 mph 1021.4mb 63f 61f
12:30 1 3 mph 1021.6mb 63f 61f
12:24 3 5 mph 1021.5mb 63f 61f
12:18 3 6 mph 1021.6mb 63f 61f
12:12 5 6 mph 1021.7mb 63f 60f
12:06 5 6 mph 1021.8mb 63f 61f
12:00 5
mph
1021.8mb 63f 61f
11:54 3 5 mph 1021.8mb 63f 61f
11:48 2 3 mph 1021.9mb 63f 61f
11:42 2 3 mph 1022mb 63f 62f
11:36 1 3 mph 1021.9mb 63f 62f
11:30 3 5 mph 1021.7mb 63f 61f
11:24 3 5 mph 1021.8mb 63f 61f
11:18 3 5 mph 1021.9mb 63f 60f
11:12 5 6 mph 1022.1mb 63f 60f
11:00 5
mph
1022.4mb 63f 60f
10:54 2
mph
1022.5mb 63f 61f
10:48 2 3 mph 1022.6mb 63f 62f
10:42 2 3 mph 1022.5mb 63f 62f
10:36 2 5 mph 1022.6mb 63f 62f
10:30 5 7 mph 1022.7mb 63f 61f
10:24 5 7 mph 1022.7mb 63f 60f
10:18 5 6 mph 1022.8mb 63f 60f
10:12 5 6 mph 1022.9mb 63f 60f
10:06 5 7 mph 1022.8mb 63f 59f
10:00 6 7 mph 1022.8mb 63f 58f
9:54 5 6 mph 1022.9mb 63f 58f
9:48 6 7 mph 1022.9mb 63f 58f
9:42 6 7 mph 1023mb 63f 58f
9:36 5 7 mph 1023mb 63f 58f
9:30 5 7 mph 1022.9mb 63f 57f
9:24 6 7 mph 1023.1mb 63f 56f
9:18 6 7 mph 1023mb 63f 56f
9:12 6 8 mph 1023mb 63f 56f
9:06 6 8 mph 1022.9mb 63f 56f
9:00 5 7 mph 1022.8mb 63f 56f
8:54 5 6 mph 1022.8mb 63f 56f
8:48 6 9 mph 1022.8mb 63f 56f
8:42 7 9 mph 1022.7mb 63f 55f
8:36 5 7 mph 1022.6mb 63f 55f
8:30 6 7 mph 1022.5mb 63f 55f
8:24 5 6 mph 1022.5mb 63f 55f
8:18 6 7 mph 1022.4mb 63f 55f
8:12 5 6 mph 1022.3mb 63f 55f
8:06 5 6 mph 1022mb 63f 55f
8:00 3 5 mph 1022.2mb 63f 54f
7:54 3 6 mph 1022.2mb 63f 54f
7:48 3 6 mph 1021.9mb 63f 54f
7:42 6
mph
1022mb 63f 54f
7:36 5 8 mph 1022.1mb 63f 54f
7:30 7 8 mph 1022.3mb 63f 54f
7:24 7 8 mph 1022.3mb 63f 54f
7:18 7 8 mph 1022.2mb 63f 53f
7:12 7 8 mph 1022.2mb 63f 53f
7:06 6 8 mph 1022.1mb 63f 53f
7:00 6 7 mph 1022mb 63f 53f
6:54 6 7 mph 1021.8mb 63f 53f
6:48 5 7 mph 1021.7mb 63f 53f
6:42 5 8 mph 1021.5mb 63f 53f
6:36 6 7 mph 1021.5mb 63f 53f
6:30 2 5 mph 1021.6mb 63f 54f
6:24 3 5 mph 1021.5mb 63f 54f
6:18 2 3 mph 1021.3mb 63f 54f
6:12  -  1 mph 1021.3mb 63f 55f
6:06 1 2 mph 1021.4mb 63f 55f
6:00  -  1 mph 1021.4mb 63f 55f
5:54  -  2 mph 1021.3mb 63f 54f
5:48 1 2 mph 1021.4mb 63f 54f
5:42 1 2 mph 1021.3mb 63f 55f
5:36 1 2 mph 1021.2mb 63f 55f
5:30 2
mph
1021mb 63f 54f
5:24 2 3 mph 1020.8mb 63f 54f
5:18 2 3 mph 1020.9mb 63f 54f
5:12 2
mph
1020.8mb 63f 55f
5:06  -  2 mph 1020.7mb 63f 54f
5:00  -  2 mph 1020.7mb 63f 54f
4:54 3 5 mph 1020.7mb 63f 54f
4:48 5 6 mph 1020.7mb 63f 54f
4:42 6
mph
1020.8mb 63f 54f
4:36 5 6 mph 1020.8mb 63f 54f
4:30 5 7 mph 1020.6mb 63f 54f
4:24 6 7 mph 1020.5mb 63f 55f
4:18 6 7 mph 1020.5mb 63f 54f
4:12 6 8 mph 1020.6mb 63f 54f
4:06 5 7 mph 1020.8mb 63f 55f
4:00 6 8 mph 1020.9mb 63f 55f
3:54 7
mph
1021mb 63f 55f
3:48 6 7 mph 1020.9mb 63f 55f
3:42 6 7 mph 1021.1mb 63f 55f
3:36 7 8 mph 1021.2mb 63f 55f
3:30 6
mph
1021.2mb 63f 55f
3:24 5 6 mph 1021.2mb 63f 55f
3:18 6
mph
1021.2mb 63f 54f
3:12 2 3 mph 1021.3mb 63f 55f
3:06  -  1 mph 1021.4mb 63f 55f
3:00  -  3 mph 1021.5mb 63f 55f
2:54 2 3 mph 1021.6mb 63f 55f
2:48 2 6 mph 1021.6mb 63f 55f
2:42 3 6 mph 1021.6mb 63f 56f
2:36 5 6 mph 1021.6mb 63f 56f
2:30 3 5 mph 1021.4mb 63f 56f
2:24 3 5 mph 1021.5mb 63f 56f
2:18 2 3 mph 1021.6mb 63f 56f
2:12 2 5 mph 1021.7mb 63f 56f
2:06 5 7 mph 1021.7mb 63f 56f
2:00 6 8 mph 1021.5mb 63f 56f
1:54 7 8 mph 1021.4mb 63f 56f
1:48 6 8 mph 1021.1mb 63f 56f
1:42 6 7 mph 1021.2mb 63f 56f
1:36 7 8 mph 1021.4mb 63f 56f
1:30 6 7 mph 1021.4mb 63f 56f
1:24 6
mph
1021.3mb 63f 56f
1:18 5 6 mph 1021.2mb 63f 56f
1:12 6 7 mph 1021.3mb 63f 55f
1:06 6
mph
1021.6mb 63f 55f
1:00 5 6 mph 1021.8mb 63f 56f
12:54 3 5 mph 1022mb 63f 56f
12:48 2 3 mph 1022mb 63f 56f
12:42 3
mph
1022mb 63f 56f
12:36 2
mph
1022.3mb 63f 56f
12:30 1 2 mph 1022.5mb 63f 57f
12:24 2
mph
1022.5mb 63f 57f
12:18 1 2 mph 1022.4mb 63f 57f
12:12 2 5 mph 1022.3mb 63f 57f
12:06 5 6 mph 1022.4mb 63f 57f
12:00 6
mph
1022.3mb 63f 57f
ven. 12/19 11:54 6 7 mph 1022.2mb 63f 57f
11:48 6
mph
1022.2mb 63f 57f
11:42 5 6 mph 1022.2mb 63f 58f
11:36 5 7 mph 1022.3mb 63f 58f
11:30 7 8 mph 1022.1mb 63f 58f
11:24 6
mph
1021.9mb 63f 58f
11:18 5 7 mph 1021.8mb 63f 58f
11:12 6 7 mph 1021.8mb 63f 58f
11:06 6 7 mph 1021.8mb 63f 58f
11:00 6 7 mph 1021.7mb 63f 58f
10:54 5 6 mph 1021.7mb 63f 58f
10:48 5 6 mph 1021.7mb 63f 58f
10:42 6 7 mph 1021.7mb 63f 58f
10:36 5 6 mph 1021.8mb 63f 58f
10:30 3
mph
1021.9mb 63f 58f
10:24 2 5 mph 1022mb 63f 59f
10:18 5
mph
1022mb 63f 59f
10:12 5 7 mph 1022.1mb 63f 59f
10:06 7 8 mph 1022.1mb 63f 59f
10:00 6 8 mph 1022.2mb 63f 59f
9:54 7 8 mph 1022.3mb 63f 59f
9:48 7 8 mph 1022.5mb 63f 60f
9:42 3 6 mph 1022.6mb 63f 59f
9:36 5 7 mph 1022.6mb 63f 59f
9:30 2 5 mph 1022.6mb 63f 59f
9:24 3 6 mph 1022.6mb 63f 58f
9:18 3 5 mph 1022.5mb 63f 58f
9:12 2 3 mph 1022.2mb 63f 59f
9:06 2 3 mph 1022.2mb 63f 58f
9:00 2
mph
1022.1mb 63f 58f
8:54 1
mph
1022mb 63f 58f
8:48  -  1 mph 1022.1mb 63f 58f
8:42 1 2 mph 1022.1mb 63f 58f
8:36 1
mph
1022.1mb 63f 58f
8:30 1 2 mph 1022.1mb 63f 59f
8:24 1 2 mph 1021.9mb 63f 59f
8:18 1 2 mph 1021.9mb 63f 58f
8:12 2
mph
1021.8mb 63f 59f
8:06 1
mph
1021.9mb 63f 59f
8:00 1
mph
1022mb 63f 59f
7:54 1 2 mph 1021.9mb 63f 59f
7:48 1 3 mph 1021.9mb 63f 59f
7:42 3 5 mph 1021.9mb 63f 59f
7:36 2 3 mph 1021.9mb 63f 59f
7:30 3 7 mph 1022mb 63f 59f
7:24 6 7 mph 1022.3mb 63f 59f
7:18 6 7 mph 1022.4mb 63f 60f
7:12 5 6 mph 1022.3mb 63f 60f
7:06 5 7 mph 1022.2mb 63f 60f
7:00 6 7 mph 1022.2mb 63f 60f
6:54 5 7 mph 1022.2mb 63f 60f
6:48 7 9 mph 1022.1mb 63f 60f
6:42 6 9 mph 1022.3mb 63f 60f
6:36 8 10 mph 1022.2mb 63f 61f
6:30 11 14 mph 1022.2mb 63f 61f
6:24 13 14 mph 1022.2mb 63f 61f
6:18 13 15 mph 1022.1mb 63f 62f
6:12 13 14 mph 1022.1mb 63f 61f
6:06 14 15 mph 1022mb 63f 61f
6:00 14 15 mph 1021.9mb 63f 61f
5:54 14 16 mph 1021.9mb 63f 61f
5:48 14 16 mph 1022mb 63f 61f
5:42 14 16 mph 1022mb 63f 61f
5:36 14 16 mph 1022mb 63f 61f
5:30 11 13 mph 1021.8mb 63f 62f
5:24 11 13 mph 1021.7mb 63f 62f
5:18 10 13 mph 1021.8mb 63f 61f
5:12 9 10 mph 1021.8mb 63f 61f
5:06 8 9 mph 1021.6mb 63f 62f
5:00 8 10 mph 1021.7mb 63f 61f
4:54 8 9 mph 1021.8mb 63f 61f
4:48 7 8 mph 1021.7mb 63f 61f
4:42 5 6 mph 1021.4mb 63f 61f
4:36 6
mph
1021.3mb 63f 61f
4:30 6
mph
1021.3mb 63f 61f
4:24 5 7 mph 1021.2mb 63f 61f
4:18 6
mph
1021.3mb 63f 61f
4:12 3 5 mph 1021.1mb 63f 61f
4:06 5
mph
1021.1mb 63f 61f
4:00 3 6 mph 1021mb 63f 61f
3:54 6
mph
1021.2mb 63f 61f
3:48 5
mph
1021mb 63f 61f
3:42 2 7 mph 1020.8mb 63f 61f
3:36 7 8 mph 1021.3mb 63f 61f
3:30 6 10 mph 1021.5mb 63f 61f
3:24 9 11 mph 1021.8mb 63f 61f
3:18 7 8 mph 1021.7mb 63f 61f
3:12 7 8 mph 1021.6mb 63f 61f
3:06 7 8 mph 1021.6mb 63f 61f
3:00 6 7 mph 1021.4mb 63f 61f
2:54 6 7 mph 1021.3mb 63f 60f
2:48 6
mph
1021.4mb 63f 60f
2:42 6 7 mph 1021.3mb 63f 60f
2:36 5 6 mph 1021.3mb 63f 61f
2:30 6 8 mph 1021.3mb 63f 61f
2:24 7 8 mph 1021.5mb 63f 61f
2:12 7 8 mph 1021.6mb 63f 61f
2:06 7 10 mph 1021.6mb 63f 61f
2:00 9 10 mph 1021.7mb 63f 61f
1:54 9 11 mph 1021.7mb 63f 60f
1:48 8 10 mph 1021.8mb 63f 61f
1:42 9 11 mph 1021.9mb 63f 61f
1:36 11 13 mph 1022mb 63f 61f
1:30 10 13 mph 1022.2mb 63f 61f
1:24 10 11 mph 1022.3mb 63f 61f
1:18 10 11 mph 1022.4mb 63f 61f
1:12 10 11 mph 1022.5mb 63f 61f
1:06 9 10 mph 1022.5mb 63f 61f
1:00 9 11 mph 1022.6mb 63f 60f
12:54 10 11 mph 1022.7mb 63f 61f
12:48 9 11 mph 1022.8mb 63f 61f
12:42 10 11 mph 1023.1mb 63f 60f
12:36 9 11 mph 1023.2mb 63f 61f
12:30 9 11 mph 1023.2mb 63f 61f
12:24 10 11 mph 1023.3mb 63f 61f
12:18 10 11 mph 1023.4mb 63f 61f
12:12 9 10 mph 1023.4mb 63f 61f
12:06 8
mph
1023.5mb 63f 61f
12:00 7 8 mph 1023.5mb 63f 61f
11:54 7 8 mph 1023.4mb 63f 61f
11:48 7 8 mph 1023.5mb 63f 61f
11:42 7
mph
1023.6mb 63f 61f
11:36 6 7 mph 1023.5mb 63f 61f
11:30 6 7 mph 1023.5mb 63f 61f
11:24 6 7 mph 1023.6mb 63f 61f
11:18 6 7 mph 1023.7mb 63f 61f
11:12 6 7 mph 1023.7mb 63f 61f
11:00 6 7 mph 1023.9mb 63f 62f
10:54 3 6 mph 1023.8mb 63f 63f
10:48 6 7 mph 1023.7mb 63f 64f
10:42 3 7 mph 1023.6mb 63f 63f
10:36 5 6 mph 1023.7mb 63f 63f
10:30 6 7 mph 1023.7mb 63f 62f
10:24 5 7 mph 1023.9mb 63f 62f
10:18 6
mph
1024mb 63f 63f
10:12 3 6 mph 1024.2mb 63f 62f
10:06 6 8 mph 1024.2mb 62f 61f
10:00 7 8 mph 1024.1mb 62f 61f
9:54 7 9 mph 1024.1mb 62f 60f
9:48 8 9 mph 1024.2mb 62f 60f
9:42 8 9 mph 1024.1mb 62f 60f
9:36 7 9 mph 1024.3mb 63f 60f
9:30 6 8 mph 1024.2mb 63f 60f
9:24 7 9 mph 1024.3mb 63f 60f
9:18 5 7 mph 1024.3mb 63f 60f
9:12 3 6 mph 1024.5mb 63f 59f
9:06 3 6 mph 1024.5mb 63f 59f
9:00 6 8 mph 1024.4mb 63f 58f
8:54 3 6 mph 1024.2mb 63f 58f
8:48 6 8 mph 1024mb 63f 58f
8:42 6 8 mph 1024.1mb 63f 57f
8:36 6 8 mph 1024.1mb 63f 57f
8:30 7 8 mph 1024mb 63f 56f
8:24 7 8 mph 1023.9mb 63f 56f
8:18 7 8 mph 1023.8mb 63f 56f
8:06 7 9 mph 1023.8mb 63f 55f
8:00 8 10 mph 1023.7mb 63f 54f
7:54 8 9 mph 1023.7mb 63f 54f
7:48 8 9 mph 1023.7mb 62f 53f
7:42 8
mph
1023.5mb 62f 53f
7:36 7 9 mph 1023.5mb 62f 53f
7:30 9
mph
1023.5mb 62f 54f
7:24 7 8 mph 1023.6mb 62f 54f
7:18 7 9 mph 1023.7mb 62f 53f
7:12 8
mph
1023.7mb 62f 53f
7:06 7 8 mph 1023.7mb 62f 53f
7:00 7 9 mph 1023.7mb 63f 53f
6:54 8 9 mph 1023.8mb 63f 53f
6:48 8
mph
1023.8mb 63f 53f
6:42 7 8 mph 1023.8mb 63f 53f
6:36 8
mph
1023.6mb 63f 53f
6:30 7 8 mph 1023.6mb 63f 53f
6:24 6 7 mph 1023.6mb 63f 53f
6:18 6 7 mph 1023.6mb 63f 52f
6:12 5 6 mph 1023.7mb 63f 52f
6:06 3 6 mph 1023.7mb 63f 53f
6:00 5 6 mph 1023.7mb 63f 53f
5:54 3 5 mph 1023.7mb 63f 53f
5:48 5 7 mph 1023.8mb 63f 53f
5:42 6 7 mph 1023.5mb 63f 53f
5:36 5 6 mph 1023.4mb 63f 53f
5:30 5 6 mph 1023.5mb 63f 53f
5:24 3 6 mph 1023.7mb 63f 53f
5:18 3 5 mph 1023.3mb 63f 53f
5:12 2 3 mph 1023.4mb 63f 54f
5:06 2 3 mph 1023.4mb 63f 55f
5:00 3 5 mph 1023.4mb 63f 55f
4:54 5
mph
1023.3mb 63f 54f
4:48 3 5 mph 1023.2mb 63f 54f
4:42 3 5 mph 1023mb 63f 54f
4:36 3 5 mph 1022.8mb 63f 54f
4:30 2 3 mph 1022.8mb 63f 54f
4:24 2 5 mph 1022.7mb 63f 54f
4:18 3 6 mph 1022.7mb 63f 54f
4:12 6 7 mph 1022.6mb 63f 53f
4:06 6 8 mph 1022.6mb 63f 53f
4:00 6 8 mph 1022.6mb 63f 53f
3:54 7 9 mph 1022.5mb 63f 53f
3:48 7 8 mph 1022.4mb 63f 54f
3:42 6 8 mph 1022.6mb 63f 54f
3:36 6 8 mph 1022.7mb 63f 54f
3:30 6 7 mph 1022.8mb 63f 54f
3:24 6 7 mph 1022.8mb 63f 54f
3:18 6 8 mph 1022.9mb 63f 54f
3:12 7 8 mph 1022.9mb 63f 54f
3:06 6 7 mph 1023mb 63f 54f
3:00 7 8 mph 1023.1mb 63f 54f
2:54 6 7 mph 1023.1mb 63f 54f
2:48 6 7 mph 1023.1mb 63f 54f
2:42 6 7 mph 1023.1mb 63f 54f
2:36 6 8 mph 1023.1mb 63f 54f
2:30 6 8 mph 1023.1mb 63f 54f
2:24 7 8 mph 1023mb 63f 54f
2:18 6 8 mph 1023mb 63f 54f
2:12 6 8 mph 1023mb 63f 54f
2:06 6
mph
1023mb 63f 54f
2:00 6 7 mph 1023.1mb 63f 54f
1:54 6 8 mph 1023.1mb 63f 54f
1:48 7 8 mph 1023mb 63f 54f
1:42 6 7 mph 1023.2mb 63f 54f
1:36 6 7 mph 1023.2mb 63f 54f
1:30 6 8 mph 1023.2mb 63f 53f
1:24 6 7 mph 1023.1mb 63f 53f
1:18 6 7 mph 1023.2mb 63f 54f
1:12 6
mph
1023.3mb 63f 54f
1:06 3 6 mph 1023.3mb 63f 54f
1:00 5 6 mph 1023.3mb 63f 54f
12:54 3 5 mph 1023.3mb 63f 54f
12:48 3
mph
1023.4mb 63f 54f
12:42 3
mph
1023.5mb 63f 54f
12:36 3
mph
1023.4mb 63f 55f
12:30 2 3 mph 1023.4mb 63f 54f
12:24 3 5 mph 1023.4mb 63f 54f
12:18 5 6 mph 1023.4mb 63f 54f
12:12 6
mph
1023.4mb 63f 54f
12:06 6 7 mph 1023.4mb 63f 54f
12:00 6 8 mph 1023.4mb 63f 54f
jeu. 12/18 11:54 7
mph
1023.3mb 63f 54f
11:48 6 8 mph 1023.3mb 63f 55f
11:42 7 8 mph 1023.3mb 63f 55f
11:36 6 7 mph 1023.3mb 63f 55f
11:30 6 7 mph 1023.4mb 63f 55f
11:24 6 7 mph 1023.4mb 63f 55f
11:18 6 7 mph 1023.4mb 63f 56f
11:12 6
mph
1023.5mb 63f 56f